Time;durP1;ratioP1;P1;durP2;ratioP2;P2;SDS_P1;SDS_P2;PMS_P1;PMS_P2;Temp;Humidity;BMP_temperature;BMP_pressure;BME280_temperature;BME280_humidity;BME280_pressure;Samples;Min_cycle;Max_cycle;Signal;HPM_P1;HPM_P2
2022/06/05 00:01:21;;;;;;;2.03;1.93;;;;;;;-143.84;31.44;45016.69;5011088;28;20451;-71
2022/06/05 00:03:55;;;;;;;1.30;1.20;;;;;;;-143.84;30.21;45007.19;5011433;28;20431;-71
2022/06/05 00:06:34;;;;;;;1.23;1.13;;;;;;;-143.84;30.85;45009.09;5011074;28;20466;-71
2022/06/05 00:09:10;;;;;;;2.07;1.40;;;;;;;-143.84;29.81;44991.94;5010865;28;20513;-71
2022/06/05 00:11:47;;;;;;;2.40;1.00;;;;;;;-143.84;30.02;45010.97;5011160;28;20435;-71
2022/06/05 00:14:14;;;;;;;1.10;1.00;;;;;;;-143.84;29.47;45009.09;5011097;28;20856;-71
2022/06/05 00:16:44;;;;;;;1.10;0.87;;;;;;;-143.84;28.81;45001.47;5011061;28;20530;-71
2022/06/05 00:19:11;;;;;;;1.50;1.00;;;;;;;-143.84;29.30;44990.03;5010905;28;20883;-71
2022/06/05 00:21:38;;;;;;;1.20;1.10;;;;;;;-143.84;28.78;45024.31;5010967;28;20431;-71
2022/06/05 00:24:06;;;;;;;2.43;1.00;;;;;;;-143.84;28.05;44999.56;5011130;28;20905;-71
2022/06/05 00:26:45;;;;;;;0.90;0.80;;;;;;;-143.84;27.72;44988.13;5030301;28;20512;-75
2022/06/05 00:29:34;;;;;;;1.00;0.80;;;;;;;-143.84;26.96;44995.75;5030499;28;20450;-75
2022/06/05 00:32:11;;;;;;;3.17;0.80;;;;;;;-143.84;27.14;44967.19;5029773;28;20446;-75
2022/06/05 00:34:39;;;;;;;1.10;0.73;;;;;;;-143.84;26.83;45014.78;5029775;28;20462;-75
2022/06/05 00:37:16;;;;;;;1.63;0.90;;;;;;;-143.84;27.14;44993.84;5029794;28;20438;-75
2022/06/05 00:39:49;;;;;;;1.23;0.73;;;;;;;-143.84;27.41;44990.03;5029819;28;20986;-75
2022/06/05 00:42:20;;;;;;;1.40;1.00;;;;;;;-143.84;27.80;45001.47;5029737;28;20504;-74
2022/06/05 00:44:51;;;;;;;1.07;0.97;;;;;;;-143.84;27.95;45005.28;5028511;28;20442;-74
2022/06/05 00:47:21;;;;;;;3.73;0.87;;;;;;;-143.84;28.39;44988.13;5029928;28;20449;-74
2022/06/05 00:49:53;;;;;;;2.90;1.03;;;;;;;-143.84;29.46;45001.47;5029629;28;20459;-74
2022/06/05 00:52:23;;;;;;;4.87;0.80;;;;;;;-143.84;29.47;44982.41;5029432;28;20963;-75
2022/06/05 00:54:51;;;;;;;1.10;0.70;;;;;;;-143.84;28.16;44980.53;5029344;28;20465;-74
2022/06/05 00:57:19;;;;;;;1.53;1.00;;;;;;;-143.84;27.22;44984.31;5029411;28;20794;-74
2022/06/05 00:59:49;;;;;;;0.90;0.73;;;;;;;-143.84;27.79;44995.75;5029475;28;20482;-74
2022/06/05 01:02:16;;;;;;;1.00;0.90;;;;;;;-143.84;28.21;44990.03;5029502;28;20883;-74
2022/06/05 01:04:49;;;;;;;2.80;1.10;;;;;;;-143.84;27.12;44999.56;5029566;28;20889;-74
2022/06/05 01:07:16;;;;;;;1.20;0.80;;;;;;;-143.84;28.15;44988.13;5029205;28;20450;-75
2022/06/05 01:09:46;;;;;;;1.97;0.93;;;;;;;-143.84;28.05;45001.47;5029494;28;20439;-75
2022/06/05 01:12:25;;;;;;;5.23;0.80;;;;;;;-143.84;28.23;44995.75;5028985;28;20434;-75
2022/06/05 01:15:03;;;;;;;1.23;1.13;;;;;;;-143.84;27.28;44978.63;5030465;28;20430;-72
2022/06/05 01:17:35;;;;;;;0.87;0.53;;;;;;;-143.84;26.75;44984.31;5029929;28;20426;-72
2022/06/05 01:20:16;;;;;;;3.13;0.83;;;;;;;-143.84;27.38;44980.53;5029305;28;21045;-72
2022/06/05 01:23:19;;;;;;;2.30;0.80;;;;;;;-143.84;26.58;44984.31;5030163;28;20446;-72
2022/06/05 01:26:09;;;;;;;3.43;0.80;;;;;;;-143.84;26.17;44997.66;5029299;28;20550;-72
2022/06/05 01:28:43;;;;;;;0.90;0.70;;;;;;;-143.84;25.94;44995.75;5050419;28;20545;-72
2022/06/05 01:31:18;;;;;;;1.97;0.80;;;;;;;-143.84;26.12;45005.28;5047475;28;20465;-72
2022/06/05 01:33:57;;;;;;;1.20;0.80;;;;;;;-143.84;26.03;44967.19;5030627;28;20438;-72
2022/06/05 01:36:32;;;;;;;1.23;0.90;;;;;;;-143.84;26.39;44988.13;5030579;28;20863;-72
2022/06/05 01:39:05;;;;;;;0.90;0.70;;;;;;;-143.84;28.17;44976.72;5030611;28;20499;-72
2022/06/05 01:41:38;;;;;;;2.70;0.90;;;;;;;-143.84;27.28;44978.63;5030436;28;20478;-72
2022/06/05 01:44:10;;;;;;;2.10;0.83;;;;;;;-143.84;27.69;45005.28;5030361;28;20504;-72
2022/06/05 01:46:39;;;;;;;1.57;1.10;;;;;;;-143.84;26.93;44991.94;5030396;28;20443;-72
2022/06/05 01:49:17;;;;;;;1.67;0.80;;;;;;;-143.84;27.32;44993.84;5030421;28;20451;-72
2022/06/05 01:51:55;;;;;;;2.17;1.00;;;;;;;-143.84;27.45;44976.72;5030197;28;20500;-71
2022/06/05 01:54:29;;;;;;;1.00;0.77;;;;;;;-143.84;28.05;45007.19;5030432;28;20532;-72
2022/06/05 01:57:05;;;;;;;1.10;1.00;;;;;;;-143.84;28.62;44984.31;5030468;28;21277;-72
2022/06/05 01:59:39;;;;;;;1.00;0.90;;;;;;;-143.84;27.93;44972.91;5030271;28;20458;-72
2022/06/05 02:02:11;;;;;;;1.90;1.00;;;;;;;-143.84;28.09;44980.53;5030423;28;20987;-72
2022/06/05 02:04:43;;;;;;;3.73;0.93;;;;;;;-143.84;27.63;44988.13;5029938;28;20450;-72
2022/06/05 02:07:16;;;;;;;1.10;1.00;;;;;;;-143.84;28.67;44990.03;5032703;28;20444;-72
2022/06/05 02:09:49;;;;;;;1.47;1.27;;;;;;;-143.84;29.24;44988.13;5034521;28;20438;-72
2022/06/05 02:12:18;;;;;;;1.00;0.90;;;;;;;-143.84;27.97;44991.94;5034731;28;20451;-72
2022/06/05 02:14:46;;;;;;;1.20;0.90;;;;;;;-143.84;28.50;44972.91;5034563;28;20442;-72
2022/06/05 02:17:13;;;;;;;1.10;0.70;;;;;;;-143.84;27.79;45009.09;5034304;28;20438;-72
2022/06/05 02:19:42;;;;;;;1.67;0.93;;;;;;;-143.84;28.22;44971.00;5034002;28;20442;-72
2022/06/05 02:22:13;;;;;;;1.90;1.30;;;;;;;-143.84;29.16;45012.88;5034210;28;20465;-72
2022/06/05 02:24:41;;;;;;;2.47;1.10;;;;;;;-143.84;29.13;45007.19;5033798;28;20486;-72
2022/06/05 02:27:08;;;;;;;1.53;1.23;;;;;;;-143.84;29.90;45024.31;5034287;28;21013;-72
2022/06/05 02:29:38;;;;;;;3.10;1.00;;;;;;;-143.84;30.77;44980.53;5033843;28;20438;-72
2022/06/05 02:32:29;;;;;;;3.63;1.10;;;;;;;-143.84;30.61;44995.75;5034005;28;20454;-72
2022/06/05 02:35:08;;;;;;;1.80;0.93;;;;;;;-143.84;31.25;44995.75;5034115;28;20450;-72
2022/06/05 02:37:47;;;;;;;1.23;1.13;;;;;;;-143.84;31.47;44971.00;5033922;28;20553;-72
2022/06/05 02:40:23;;;;;;;2.00;1.83;;;;;;;-143.84;31.66;44963.38;5033840;28;20470;-72
2022/06/05 02:42:57;;;;;;;12.23;1.87;;;;;;;-143.84;31.64;45007.19;5033667;28;20434;-72
2022/06/05 02:45:29;;;;;;;1.20;0.97;;;;;;;-143.84;32.06;44961.47;5033612;28;20442;-72
2022/06/05 02:48:05;;;;;;;1.70;1.60;;;;;;;-143.84;32.22;44959.56;5033921;28;20532;-72
2022/06/05 02:50:39;;;;;;;1.87;1.47;;;;;;;-143.84;32.41;44986.22;5033828;28;20446;-72
2022/06/05 02:53:09;;;;;;;1.67;1.57;;;;;;;-143.84;32.54;45003.38;5033636;28;20492;-72
2022/06/05 02:55:36;;;;;;;2.93;1.53;;;;;;;-143.84;33.00;44959.56;5033629;28;20443;-72
2022/06/05 02:58:03;;;;;;;1.57;1.47;;;;;;;-143.84;32.97;44974.81;5033479;28;20443;-72
2022/06/05 03:00:35;;;;;;;1.77;1.67;;;;;;;-143.84;33.20;44974.81;5033728;28;20474;-72
2022/06/05 03:05:47;;;;;;;2.03;1.40;;;;;;;-143.84;33.63;44982.41;5033182;28;20430;-72
2022/06/05 03:08:17;;;;;;;4.13;1.60;;;;;;;-143.84;34.00;44988.13;5033347;28;20825;-72
2022/06/05 03:10:45;;;;;;;1.70;1.60;;;;;;;-143.84;34.30;44969.09;5033128;28;20434;-72
2022/06/05 03:13:12;;;;;;;3.57;1.70;;;;;;;-143.84;34.45;44990.03;5032934;28;20434;-72
2022/06/05 03:15:42;;;;;;;2.77;1.93;;;;;;;-143.84;34.85;44980.53;5033037;28;20513;-72
2022/06/05 03:18:12;;;;;;;6.03;1.70;;;;;;;-143.84;35.15;45003.38;5032529;28;20525;-72
2022/06/05 03:20:39;;;;;;;1.90;1.80;;;;;;;-143.84;34.71;44988.13;5032941;28;20999;-73
2022/06/05 03:23:09;;;;;;;9.70;2.33;;;;;;;-143.84;35.05;44965.28;5033088;28;20492;-73
2022/06/05 03:25:38;;;;;;;2.90;1.50;;;;;;;-143.84;34.96;44972.91;5045702;28;20485;-72
2022/06/05 03:28:05;;;;;;;3.90;1.50;;;;;;;-143.84;34.85;44976.72;5052939;28;20479;-71
2022/06/05 03:30:33;;;;;;;2.13;1.77;;;;;;;-143.84;35.23;44972.91;5052957;28;20923;-71
2022/06/05 03:33:01;;;;;;;2.90;1.93;;;;;;;-143.84;35.25;44969.09;5053336;28;20993;-72
2022/06/05 03:35:28;;;;;;;2.20;1.90;;;;;;;-143.84;35.36;44995.75;5052243;28;20874;-72
2022/06/05 03:37:56;;;;;;;1.60;1.50;;;;;;;-143.84;34.99;44946.25;5050776;28;20438;-72
2022/06/05 03:40:23;;;;;;;2.00;1.80;;;;;;;-143.84;34.31;44967.19;5050654;28;21168;-72
2022/06/05 03:42:50;;;;;;;5.30;1.80;;;;;;;-143.84;33.27;44953.88;5050792;28;20438;-72
2022/06/05 03:45:18;;;;;;;8.83;2.07;;;;;;;-143.84;32.71;44911.97;5050641;28;20476;-72
2022/06/05 03:47:45;;;;;;;6.13;1.53;;;;;;;-143.84;31.13;44929.09;5050719;28;20993;-72
2022/06/05 03:50:15;;;;;;;1.80;1.70;;;;;;;-143.84;30.58;44877.69;5050609;28;20503;-72
2022/06/05 03:52:43;;;;;;;5.67;1.80;;;;;;;-143.84;30.17;44881.50;5050384;28;20843;-72
2022/06/05 03:55:11;;;;;;;10.53;1.63;;;;;;;-143.84;29.75;44906.25;5050525;28;20445;-72
2022/06/05 03:57:39;;;;;;;10.53;1.67;;;;;;;-143.84;29.29;44866.28;5050168;28;20970;-72
2022/06/05 04:00:09;;;;;;;1.87;1.67;;;;;;;-143.84;29.08;44862.47;5050134;28;20430;-74
2022/06/05 04:02:36;;;;;;;27.47;1.77;;;;;;;-143.84;28.67;44873.88;5050344;28;21357;-73
2022/06/05 04:05:05;;;;;;;3.23;1.10;;;;;;;-143.84;28.83;44849.13;5050400;28;20522;-73
2022/06/05 04:07:35;;;;;;;4.30;1.60;;;;;;;-143.84;28.32;44870.09;5050018;28;20457;-73
2022/06/05 04:10:02;;;;;;;2.90;1.10;;;;;;;-143.84;28.01;44866.28;5050087;28;20446;-73
2022/06/05 04:12:29;;;;;;;2.70;1.53;;;;;;;-143.84;27.28;44854.84;5050023;28;20955;-73
2022/06/05 04:14:56;;;;;;;1.43;1.33;;;;;;;-143.84;27.40;44856.75;5049771;28;20481;-73
2022/06/05 04:17:23;;;;;;;3.40;1.50;;;;;;;-143.84;27.25;44847.22;5049993;28;20576;-73
2022/06/05 04:19:53;;;;;;;2.10;1.50;;;;;;;-143.84;27.33;44839.63;5050102;28;20441;-73
2022/06/05 04:22:20;;;;;;;5.20;1.40;;;;;;;-143.84;27.52;44830.09;5049875;28;20850;-71
2022/06/05 04:24:49;;;;;;;4.00;1.70;;;;;;;-143.84;27.58;44822.47;5049945;28;20489;-71
2022/06/05 04:27:17;;;;;;;2.50;1.10;;;;;;;-143.84;27.48;44835.81;5049957;28;20446;-70
2022/06/05 04:29:44;;;;;;;2.67;1.60;;;;;;;-143.84;27.32;44818.66;5047941;28;20442;-71
2022/06/05 04:32:11;;;;;;;2.23;1.00;;;;;;;-143.84;27.57;44816.78;5025373;28;20499;-72
2022/06/05 04:34:38;;;;;;;6.00;1.67;;;;;;;-143.84;27.44;44782.50;5049632;28;20437;-71
2022/06/05 04:37:06;;;;;;;2.47;1.50;;;;;;;-143.84;27.29;44811.06;5050293;28;20430;-71
2022/06/05 04:39:33;;;;;;;1.77;1.30;;;;;;;-143.84;27.00;44822.47;5049688;28;20563;-72
2022/06/05 04:42:02;;;;;;;1.63;1.37;;;;;;;-143.84;27.30;44784.41;5049407;28;20473;-73
2022/06/05 04:44:29;;;;;;;2.23;1.20;;;;;;;-143.84;26.88;44801.53;5049606;28;20442;-73
2022/06/05 04:46:56;;;;;;;1.30;1.20;;;;;;;-143.84;27.29;44786.31;5048915;28;20491;-72
2022/06/05 04:49:23;;;;;;;1.30;1.20;;;;;;;-143.84;26.82;44809.16;5049382;28;20434;-72
2022/06/05 04:51:50;;;;;;;3.00;1.37;;;;;;;-143.84;27.54;44761.56;5049636;28;21095;-72
2022/06/05 04:54:18;;;;;;;2.13;1.47;;;;;;;-143.84;27.39;44792.00;5049729;28;20430;-72
2022/06/05 04:56:45;;;;;;;2.00;1.90;;;;;;;-143.84;26.87;44790.13;5048905;28;20442;-72
2022/06/05 04:59:14;;;;;;;3.23;1.43;;;;;;;-143.84;26.71;44822.47;5043340;28;20512;-72
2022/06/05 05:01:42;;;;;;;3.33;1.33;;;;;;;-143.84;27.54;44784.41;5027684;28;20474;-72
2022/06/05 05:04:12;;;;;;;1.63;1.40;;;;;;;-143.84;26.25;44784.41;5029572;28;20783;-72
2022/06/05 05:06:41;;;;;;;2.13;1.50;;;;;;;-143.84;26.58;44788.22;5029339;28;20811;-72
2022/06/05 05:09:09;;;;;;;2.07;1.30;;;;;;;-143.84;26.41;44778.69;5029362;28;20984;-72
2022/06/05 05:11:37;;;;;;;4.07;1.57;;;;;;;-143.84;26.61;44752.03;5029082;28;20971;-72
2022/06/05 05:14:04;;;;;;;8.70;2.20;;;;;;;-143.84;27.53;44771.06;5029021;28;20438;-73
2022/06/05 05:16:33;;;;;;;7.07;2.03;;;;;;;-143.84;28.15;44755.84;5028339;28;20488;-73
2022/06/05 05:19:00;;;;;;;2.37;1.60;;;;;;;-143.84;27.56;44731.09;5028676;28;20454;-73
2022/06/05 05:21:28;;;;;;;5.57;3.23;;;;;;;-143.84;28.36;44740.59;5028858;28;20814;-72
2022/06/05 05:23:57;;;;;;;7.80;5.10;;;;;;;-143.84;27.65;44740.59;5028560;28;20450;-72
2022/06/05 05:26:26;;;;;;;14.53;7.80;;;;;;;-143.84;27.22;44793.91;5028684;28;20478;-72
2022/06/05 05:28:55;;;;;;;19.30;10.20;;;;;;;-143.84;27.68;44759.66;5028733;28;20439;-72
2022/06/05 05:31:24;;;;;;;15.27;8.40;;;;;;;-143.84;25.90;44742.50;5028504;28;20488;-71
2022/06/05 05:33:54;;;;;;;7.37;4.03;;;;;;;-143.84;26.55;44792.00;5008848;28;20953;-73
2022/06/05 05:36:23;;;;;;;5.47;2.93;;;;;;;-143.84;26.42;44767.25;5008235;28;20575;-73
2022/06/05 05:44:22;;;;;;;4.13;2.10;;;;;;;-143.84;25.93;44793.91;5008853;28;20538;-73
2022/06/05 05:46:49;;;;;;;1.83;1.73;;;;;;;-143.84;25.40;44786.31;5008281;28;20538;-73
2022/06/05 05:49:18;;;;;;;6.17;2.30;;;;;;;-143.84;25.97;44790.13;5009053;28;20513;-72
2022/06/05 05:51:46;;;;;;;4.83;3.10;;;;;;;-143.84;26.17;44805.34;5009157;28;20911;-72
2022/06/05 05:54:13;;;;;;;2.27;1.90;;;;;;;-143.84;25.12;44759.66;5009242;28;20443;-72
2022/06/05 05:56:40;;;;;;;5.27;3.20;;;;;;;-143.84;24.66;44780.59;5008700;28;20436;-72
2022/06/05 05:59:08;;;;;;;4.03;3.67;;;;;;;-143.84;25.41;44790.13;5008816;28;21019;-73
2022/06/05 06:01:35;;;;;;;8.13;3.70;;;;;;;-143.84;24.06;44799.63;5008481;28;21195;-74
2022/06/05 06:04:03;;;;;;;4.17;2.33;;;;;;;-143.84;23.61;44748.22;5008571;28;20439;-73
2022/06/05 06:06:34;;;;;;;3.33;2.33;;;;;;;-143.84;24.30;44782.50;5008711;28;20525;-74
2022/06/05 06:09:01;;;;;;;4.50;3.00;;;;;;;-143.84;24.76;44774.88;5008526;28;20440;-73
2022/06/05 06:11:29;;;;;;;5.17;3.03;;;;;;;-143.84;24.04;44797.72;5008404;28;20462;-73
2022/06/05 06:13:56;;;;;;;2.90;2.70;;;;;;;-143.84;25.74;44759.66;5008925;28;20925;-74
2022/06/05 06:16:23;;;;;;;2.87;2.33;;;;;;;-143.84;26.08;44784.41;5008104;28;20440;-74
2022/06/05 06:18:51;;;;;;;3.30;2.70;;;;;;;-143.84;26.18;44767.25;5008765;28;20790;-73
2022/06/05 06:21:18;;;;;;;3.10;2.30;;;;;;;-143.84;26.72;44812.97;5008689;28;21111;-73
2022/06/05 06:23:47;;;;;;;1.80;1.70;;;;;;;-143.84;26.79;44788.22;5008515;28;20454;-74
2022/06/05 06:26:15;;;;;;;4.90;2.20;;;;;;;-143.84;26.89;44767.25;5026158;28;20906;-73
2022/06/05 06:28:42;;;;;;;3.73;2.20;;;;;;;-143.84;26.94;44784.41;5028378;28;20960;-73
2022/06/05 06:31:12;;;;;;;3.87;1.77;;;;;;;-143.84;26.36;44801.53;5027738;28;20435;-74
2022/06/05 06:33:40;;;;;;;1.90;1.80;;;;;;;-143.84;25.63;44757.75;5028252;28;20461;-73
2022/06/05 06:36:09;;;;;;;1.70;1.50;;;;;;;-143.84;25.78;44736.81;5028106;28;20471;-73
2022/06/05 06:38:36;;;;;;;1.63;1.53;;;;;;;-143.84;26.10;44759.66;5028542;28;20438;-75
2022/06/05 06:41:06;;;;;;;2.30;1.83;;;;;;;-143.84;24.78;44771.06;5028071;28;20431;-76
2022/06/05 06:43:35;;;;;;;4.83;1.43;;;;;;;-143.84;24.23;44744.41;5028438;28;20445;-76
2022/06/05 06:46:03;;;;;;;3.93;1.57;;;;;;;-143.84;23.50;44769.16;5028147;28;20426;-74
2022/06/05 06:48:30;;;;;;;1.83;1.73;;;;;;;-143.84;22.81;44748.22;5028575;28;21161;-74
2022/06/05 06:50:59;;;;;;;2.23;2.00;;;;;;;-143.84;23.15;44748.22;5028302;28;20445;-74
2022/06/05 06:53:27;;;;;;;1.70;1.60;;;;;;;-143.84;23.78;44733.00;5028650;28;20521;-74
2022/06/05 06:55:54;;;;;;;3.40;1.50;;;;;;;-143.84;25.24;44736.81;5030402;28;20955;-74
2022/06/05 06:58:24;;;;;;;6.53;2.00;;;;;;;-143.84;24.36;44772.97;5030458;28;21011;-74
2022/06/05 07:00:51;;;;;;;2.20;2.10;;;;;;;-143.84;25.24;44742.50;5030961;28;20573;-73
2022/06/05 07:03:18;;;;;;;5.73;2.07;;;;;;;-143.84;25.69;44736.81;5031535;28;20485;-74
2022/06/05 07:05:45;;;;;;;6.20;2.00;;;;;;;-143.84;25.85;44742.50;5031459;28;20503;-74
2022/06/05 07:08:12;;;;;;;3.60;2.30;;;;;;;-143.84;25.56;44750.13;5031984;28;20949;-73
2022/06/05 07:10:40;;;;;;;4.43;2.33;;;;;;;-143.84;25.83;44753.94;5031523;28;20797;-74
2022/06/05 07:13:07;;;;;;;9.10;2.30;;;;;;;-143.84;25.78;44740.59;5031496;28;20434;-73
2022/06/05 07:15:35;;;;;;;8.10;2.80;;;;;;;-143.84;26.56;44744.41;5031254;28;20454;-74
2022/06/05 07:18:04;;;;;;;3.63;2.90;;;;;;;-143.84;26.55;44757.75;5031331;28;20461;-73
2022/06/05 07:20:34;;;;;;;12.23;2.60;;;;;;;-143.84;26.63;44761.56;5031016;28;20435;-73
2022/06/05 07:23:02;;;;;;;6.20;2.70;;;;;;;-143.84;26.96;44727.28;5031258;28;20911;-73
2022/06/05 07:25:30;;;;;;;6.47;2.47;;;;;;;-143.84;26.26;44761.56;5042238;28;20584;-73
2022/06/05 07:27:57;;;;;;;3.30;2.77;;;;;;;-143.84;27.68;44767.25;5051200;28;20449;-73
2022/06/05 07:30:24;;;;;;;5.90;3.10;;;;;;;-143.84;27.49;44801.53;5050004;28;20963;-71
2022/06/05 07:32:53;;;;;;;3.93;2.50;;;;;;;-143.84;27.49;44761.56;5050898;28;20872;-72
2022/06/05 07:35:21;;;;;;;4.50;2.90;;;;;;;-143.84;29.19;44774.88;5050759;28;20458;-72
2022/06/05 07:37:48;;;;;;;3.77;2.57;;;;;;;-143.84;28.30;44793.91;5050825;28;20441;-72
2022/06/05 07:40:16;;;;;;;5.67;2.97;;;;;;;-143.84;28.99;44788.22;5050655;28;20854;-72
2022/06/05 07:42:45;;;;;;;2.93;2.60;;;;;;;-143.84;29.77;44746.31;5050780;28;20496;-72
2022/06/05 07:45:16;;;;;;;7.47;2.87;;;;;;;-143.84;30.50;44790.13;5050343;28;21072;-72
2022/06/05 07:47:43;;;;;;;9.20;3.20;;;;;;;-143.84;29.90;44828.19;5050528;28;20442;-72
2022/06/05 07:50:12;;;;;;;9.90;3.13;;;;;;;-143.84;29.23;44799.63;5050700;28;20443;-71
2022/06/05 07:55:25;;;;;;;8.70;3.37;;;;;;;-143.84;28.60;44809.16;5050564;28;20595;-74
2022/06/05 07:57:52;;;;;;;8.30;3.13;;;;;;;-143.84;29.36;44792.00;5050568;28;20430;-73
2022/06/05 08:00:21;;;;;;;4.67;2.60;;;;;;;-143.84;28.56;44790.13;5049914;28;20445;-73
2022/06/05 08:02:49;;;;;;;8.20;2.57;;;;;;;-143.84;27.99;44786.31;5050555;28;20985;-73
2022/06/05 08:05:17;;;;;;;2.30;2.20;;;;;;;-143.84;27.65;44807.25;5050008;28;20473;-73
2022/06/05 08:07:45;;;;;;;8.37;3.00;;;;;;;-143.84;28.17;44797.72;5050295;28;20438;-73
2022/06/05 08:10:13;;;;;;;4.43;2.77;;;;;;;-143.84;29.13;44786.31;5049923;28;20881;-73
2022/06/05 08:12:40;;;;;;;3.30;2.53;;;;;;;-143.84;28.46;44801.53;5048374;28;20453;-73
2022/06/05 08:15:10;;;;;;;4.10;2.87;;;;;;;-143.84;29.61;44812.97;5049609;28;20446;-73
2022/06/05 08:17:38;;;;;;;3.97;2.70;;;;;;;-143.84;28.22;44776.78;5049991;28;20427;-73
2022/06/05 08:20:08;;;;;;;6.67;2.77;;;;;;;-143.84;27.18;44790.13;5050237;28;20455;-73
2022/06/05 08:22:37;;;;;;;10.07;2.80;;;;;;;-143.84;30.24;44767.25;5049818;28;20469;-73
2022/06/05 08:25:04;;;;;;;10.83;2.60;;;;;;;-143.84;29.25;44761.56;5049563;28;20490;-73
2022/06/05 08:27:31;;;;;;;5.00;3.00;;;;;;;-143.84;28.22;44742.50;5050031;28;20773;-73
2022/06/05 08:29:59;;;;;;;7.20;2.40;;;;;;;-143.84;29.45;44778.69;5049882;28;20446;-73
2022/06/05 08:32:28;;;;;;;5.00;2.53;;;;;;;-143.84;28.89;44778.69;5049843;28;20450;-73
2022/06/05 08:34:56;;;;;;;2.40;2.20;;;;;;;-143.84;28.56;44752.03;5049961;28;20491;-73
2022/06/05 08:43:25;;;;;;;13.80;2.90;;;;;;;-143.84;28.82;44774.88;5049569;28;20488;-73
2022/06/05 08:46:01;;;;;;;11.30;2.70;;;;;;;-143.84;27.78;44746.31;5047773;28;20449;-73
2022/06/05 08:48:33;;;;;;;4.10;2.50;;;;;;;-143.84;28.42;44746.31;5049579;28;20425;-73
2022/06/05 08:51:17;;;;;;;6.40;2.30;;;;;;;-143.84;28.93;44776.78;5049242;28;20495;-73
2022/06/05 08:53:51;;;;;;;3.20;2.60;;;;;;;-143.84;29.34;44771.06;5048945;28;20444;-73
2022/06/05 08:56:26;;;;;;;2.90;2.70;;;;;;;-143.84;29.46;44807.25;5049244;28;20499;-73
2022/06/05 08:58:58;;;;;;;4.50;2.30;;;;;;;-143.84;29.96;44753.94;5048865;28;20418;-73
2022/06/05 09:01:33;;;;;;;7.50;2.60;;;;;;;-143.84;29.33;44805.34;5049186;28;20437;-73
2022/06/05 09:04:14;;;;;;;3.27;2.47;;;;;;;-143.84;30.22;44812.97;5049169;28;20959;-73
2022/06/05 09:06:45;;;;;;;3.73;2.50;;;;;;;-143.84;29.07;44778.69;5048967;28;20496;-73
2022/06/05 09:09:18;;;;;;;3.33;3.07;;;;;;;-143.84;29.42;44812.97;5049563;28;21033;-73
2022/06/05 09:11:55;;;;;;;9.93;2.50;;;;;;;-143.84;27.51;44784.41;5048193;28;20433;-72
2022/06/05 09:14:32;;;;;;;2.63;2.43;;;;;;;-143.84;29.81;44803.44;5028462;28;20512;-72
2022/06/05 09:17:04;;;;;;;4.70;2.00;;;;;;;-143.84;28.19;44807.25;5028851;28;20454;-72
2022/06/05 09:19:32;;;;;;;4.40;2.27;;;;;;;-143.84;27.96;44767.25;5028972;28;20435;-72
2022/06/05 09:22:06;;;;;;;5.90;2.20;;;;;;;-143.84;27.12;44786.31;5028864;28;21208;-72
2022/06/05 09:24:45;;;;;;;1.63;1.53;;;;;;;-143.84;26.77;44812.97;5028851;28;20518;-72
2022/06/05 09:27:23;;;;;;;4.50;2.30;;;;;;;-143.84;30.52;44774.88;5028941;28;20450;-73
2022/06/05 09:29:57;;;;;;;2.30;2.20;;;;;;;-143.84;30.25;44786.31;5028626;28;20442;-72
2022/06/05 09:32:53;;;;;;;6.07;2.80;;;;;;;-143.84;32.18;44822.47;5029160;28;20451;-72
2022/06/05 09:35:25;;;;;;;11.73;3.20;;;;;;;-143.84;33.75;44792.00;5029115;28;20438;-72
2022/06/05 09:37:59;;;;;;;7.13;3.10;;;;;;;-143.84;33.78;44822.47;5029000;28;20446;-72
2022/06/05 09:40:32;;;;;;;14.20;3.40;;;;;;;-143.84;33.89;44803.44;5028803;28;20565;-72
2022/06/05 09:43:34;;;;;;;12.50;4.10;;;;;;;-143.84;34.05;44812.97;5027888;28;20514;-72
2022/06/05 09:46:17;;;;;;;7.23;2.70;;;;;;;-143.84;34.48;44788.22;5023469;28;20450;-71
2022/06/05 09:48:50;;;;;;;3.33;2.60;;;;;;;-143.84;34.17;44839.63;5028229;28;20446;-72
2022/06/05 09:51:19;;;;;;;8.63;2.90;;;;;;;-143.84;33.75;44769.16;5028192;28;20435;-72
2022/06/05 09:53:58;;;;;;;8.60;3.50;;;;;;;-143.84;32.49;44755.84;5028218;28;20434;-72
2022/06/05 09:58:24;;;;;;;5.03;2.80;;;;;;;-143.84;31.99;44797.72;5027866;28;21001;-72
2022/06/05 09:59:33;;;;;;;3.70;3.00;;;;;;;-143.84;32.93;44832.00;5027311;28;20510;-72
2022/06/05 10:02:02;;;;;;;6.40;2.97;;;;;;;-143.84;31.75;44820.56;5028049;28;20442;-72
2022/06/05 10:04:33;;;;;;;4.90;2.93;;;;;;;-143.84;32.09;44828.19;5028061;28;20870;-72
2022/06/05 10:07:06;;;;;;;6.17;2.40;;;;;;;-143.84;31.83;44782.50;5028334;28;20509;-72
2022/06/05 10:09:34;;;;;;;5.50;2.60;;;;;;;-143.84;32.53;44820.56;5028630;28;20478;-72
2022/06/05 10:12:07;;;;;;;12.93;3.43;;;;;;;-143.84;31.81;44809.16;5028398;28;20438;-72
2022/06/05 10:14:50;;;;;;;3.07;2.80;;;;;;;-143.84;30.76;44807.25;5027978;28;20470;-72
2022/06/05 10:17:44;;;;;;;4.13;2.10;;;;;;;-143.84;29.78;44812.97;5028303;28;20493;-72
2022/06/05 10:20:51;;;;;;;2.17;1.90;;;;;;;-143.84;27.21;44797.72;5028846;28;20450;-72
2022/06/05 10:23:40;;;;;;;8.90;1.80;;;;;;;-143.84;27.51;44835.81;5028296;28;20475;-72
2022/06/05 10:26:28;;;;;;;1.73;1.63;;;;;;;-143.84;26.60;44843.44;5045219;28;20559;-72
2022/06/05 10:29:12;;;;;;;3.90;2.60;;;;;;;-143.84;27.62;44839.63;5049078;28;20959;-72
2022/06/05 10:31:47;;;;;;;2.03;1.60;;;;;;;-143.84;29.03;44818.66;5051701;28;20438;-72
2022/06/05 10:34:24;;;;;;;4.03;1.70;;;;;;;-143.84;30.20;44856.75;5051329;28;20528;-72
2022/06/05 10:37:03;;;;;;;9.33;2.23;;;;;;;-143.84;31.41;44843.44;5051636;28;20453;-72
2022/06/05 10:39:41;;;;;;;2.63;2.00;;;;;;;-143.84;31.63;44832.00;5051659;28;20516;-72
2022/06/05 10:42:27;;;;;;;4.17;2.00;;;;;;;-143.84;32.35;44851.03;5051565;28;20441;-72
2022/06/05 10:45:09;;;;;;;3.10;2.90;;;;;;;-143.84;31.83;44873.88;5051770;28;20434;-72
2022/06/05 10:47:48;;;;;;;6.10;2.60;;;;;;;-143.84;32.59;44839.63;5040287;28;20465;-72
2022/06/05 10:50:20;;;;;;;3.10;2.50;;;;;;;-143.84;33.23;44854.84;5031938;28;20847;-72
2022/06/05 10:52:57;;;;;;;4.47;4.07;;;;;;;-143.84;34.42;44860.56;5031603;28;20446;-72
2022/06/05 10:55:38;;;;;;;9.03;7.77;;;;;;;-143.84;34.42;44843.44;5032076;28;20422;-73
2022/06/05 10:58:16;;;;;;;3.27;2.77;;;;;;;-143.84;32.69;44820.56;5031210;28;20937;-72
2022/06/05 11:00:59;;;;;;;2.87;2.67;;;;;;;-143.84;32.94;44862.47;5031666;28;20886;-72
2022/06/05 11:03:39;;;;;;;4.73;2.83;;;;;;;-143.84;32.77;44858.66;5031499;28;20482;-72
2022/06/05 11:06:18;;;;;;;5.57;2.27;;;;;;;-143.84;32.69;44858.66;5031500;28;20443;-72
2022/06/05 11:08:58;;;;;;;4.70;2.47;;;;;;;-143.84;32.57;44858.66;5031667;28;20453;-72
2022/06/05 11:14:22;;;;;;;4.70;3.20;;;;;;;-143.84;37.05;44875.78;5030954;28;21211;-72
2022/06/05 11:16:54;;;;;;;5.73;2.80;;;;;;;-143.84;37.12;44881.50;5030631;28;20442;-71
2022/06/05 11:19:41;;;;;;;8.10;3.20;;;;;;;-143.84;37.56;44877.69;5031247;28;20452;-74
2022/06/05 11:22:15;;;;;;;5.90;3.50;;;;;;;-143.84;38.66;44887.22;5028037;28;20439;-74
2022/06/05 11:24:48;;;;;;;5.53;4.17;;;;;;;-143.84;39.70;44849.13;5045549;28;20487;-74
2022/06/05 11:27:27;;;;;;;3.90;3.10;;;;;;;-143.84;39.23;44889.13;5051228;28;20521;-74
2022/06/05 11:30:00;;;;;;;11.77;8.10;;;;;;;-143.84;41.48;44885.31;5053603;28;20930;-74
2022/06/05 11:32:48;;;;;;;19.77;12.20;;;;;;;-143.84;43.54;44881.50;5036283;28;20541;-74
2022/06/05 11:35:31;;;;;;;11.03;5.40;;;;;;;-143.84;53.49;44873.88;5053680;28;20429;-75
2022/06/05 11:38:06;;;;;;;5.00;4.07;;;;;;;-143.84;60.21;44900.53;5053585;28;20556;-74
2022/06/05 11:40:47;;;;;;;13.43;7.17;;;;;;;-143.84;61.69;44915.78;5051018;28;20495;-77
2022/06/05 11:43:28;;;;;;;3.63;3.30;;;;;;;-143.84;63.46;44929.09;5050399;28;20481;-77
2022/06/05 11:46:03;;;;;;;12.70;4.43;;;;;;;-143.84;65.70;44915.78;5050797;28;20514;-79
2022/06/05 11:48:38;;;;;;;16.67;4.50;;;;;;;-143.84;64.49;44898.66;5050569;28;20965;-76
2022/06/05 11:51:21;;;;;;;3.80;3.50;;;;;;;-143.84;65.33;44904.34;5051398;28;20946;-76
2022/06/05 11:53:57;;;;;;;16.50;4.10;;;;;;;-143.84;63.83;44940.53;5052017;28;20454;-76
2022/06/05 11:56:47;;;;;;;6.27;3.97;;;;;;;-143.84;62.02;44908.16;5052331;28;20461;-76
2022/06/05 11:59:28;;;;;;;6.80;3.97;;;;;;;-143.84;62.37;44906.25;5052613;28;20445;-76